sensor_id;sensor_type;location;lat;lon;timestamp;P1;durP1;ratioP1;P2;durP2;ratioP2
39620;SDS011;25309;48.686;9.170;2023-08-17T00:00:03;8.67;;;6.20;;
39620;SDS011;25309;48.686;9.170;2023-08-17T00:02:34;7.70;;;5.67;;
39620;SDS011;25309;48.686;9.170;2023-08-17T00:05:01;6.87;;;5.80;;
39620;SDS011;25309;48.686;9.170;2023-08-17T00:07:29;7.37;;;6.07;;
39620;SDS011;25309;48.686;9.170;2023-08-17T00:09:55;8.17;;;6.37;;
39620;SDS011;25309;48.686;9.170;2023-08-17T00:12:22;7.63;;;6.40;;
39620;SDS011;25309;48.686;9.170;2023-08-17T00:14:50;9.40;;;6.03;;
39620;SDS011;25309;48.686;9.170;2023-08-17T00:17:18;7.73;;;6.20;;
39620;SDS011;25309;48.686;9.170;2023-08-17T00:23:15;9.43;;;6.30;;
39620;SDS011;25309;48.686;9.170;2023-08-17T00:25:41;7.87;;;6.20;;
39620;SDS011;25309;48.686;9.170;2023-08-17T00:28:08;8.00;;;6.77;;
39620;SDS011;25309;48.686;9.170;2023-08-17T00:30:36;6.63;;;5.67;;
39620;SDS011;25309;48.686;9.170;2023-08-17T00:33:05;6.80;;;5.50;;
39620;SDS011;25309;48.686;9.170;2023-08-17T00:35:32;6.17;;;5.57;;
39620;SDS011;25309;48.686;9.170;2023-08-17T00:40:57;6.80;;;5.90;;
39620;SDS011;25309;48.686;9.170;2023-08-17T00:43:24;7.50;;;6.37;;
39620;SDS011;25309;48.686;9.170;2023-08-17T00:45:51;7.10;;;6.03;;
39620;SDS011;25309;48.686;9.170;2023-08-17T00:48:20;8.13;;;6.13;;
39620;SDS011;25309;48.686;9.170;2023-08-17T00:50:48;8.93;;;6.17;;
39620;SDS011;25309;48.686;9.170;2023-08-17T00:53:16;7.03;;;6.20;;
39620;SDS011;25309;48.686;9.170;2023-08-17T00:55:44;8.00;;;7.20;;
39620;SDS011;25309;48.686;9.170;2023-08-17T00:58:12;7.87;;;6.23;;
39620;SDS011;25309;48.686;9.170;2023-08-17T01:00:40;7.50;;;6.70;;
39620;SDS011;25309;48.686;9.170;2023-08-17T01:03:08;7.37;;;6.30;;
39620;SDS011;25309;48.686;9.170;2023-08-17T01:05:38;8.37;;;6.10;;
39620;SDS011;25309;48.686;9.170;2023-08-17T01:08:05;7.13;;;6.43;;
39620;SDS011;25309;48.686;9.170;2023-08-17T01:10:37;7.73;;;6.77;;
39620;SDS011;25309;48.686;9.170;2023-08-17T01:13:12;8.03;;;6.90;;
39620;SDS011;25309;48.686;9.170;2023-08-17T01:15:45;7.00;;;6.23;;
39620;SDS011;25309;48.686;9.170;2023-08-17T01:18:20;8.27;;;6.83;;
39620;SDS011;25309;48.686;9.170;2023-08-17T01:20:50;8.27;;;6.47;;
39620;SDS011;25309;48.686;9.170;2023-08-17T01:23:21;9.23;;;6.50;;
39620;SDS011;25309;48.686;9.170;2023-08-17T01:25:49;7.27;;;6.47;;
39620;SDS011;25309;48.686;9.170;2023-08-17T01:28:16;9.17;;;7.13;;
39620;SDS011;25309;48.686;9.170;2023-08-17T01:30:44;7.70;;;6.97;;
39620;SDS011;25309;48.686;9.170;2023-08-17T01:33:13;8.53;;;7.00;;
39620;SDS011;25309;48.686;9.170;2023-08-17T01:35:47;9.93;;;7.40;;
39620;SDS011;25309;48.686;9.170;2023-08-17T01:38:21;8.73;;;7.67;;
39620;SDS011;25309;48.686;9.170;2023-08-17T01:40:50;7.93;;;7.00;;
39620;SDS011;25309;48.686;9.170;2023-08-17T01:43:19;9.23;;;8.10;;
39620;SDS011;25309;48.686;9.170;2023-08-17T01:45:47;8.47;;;7.00;;
39620;SDS011;25309;48.686;9.170;2023-08-17T01:48:14;9.10;;;6.40;;
39620;SDS011;25309;48.686;9.170;2023-08-17T01:50:41;7.80;;;7.00;;
39620;SDS011;25309;48.686;9.170;2023-08-17T01:53:08;7.53;;;6.43;;
39620;SDS011;25309;48.686;9.170;2023-08-17T01:55:37;7.67;;;6.67;;
39620;SDS011;25309;48.686;9.170;2023-08-17T01:58:06;7.60;;;6.07;;
39620;SDS011;25309;48.686;9.170;2023-08-17T02:00:33;8.17;;;6.20;;
39620;SDS011;25309;48.686;9.170;2023-08-17T02:03:00;8.13;;;6.80;;
39620;SDS011;25309;48.686;9.170;2023-08-17T02:05:27;7.53;;;6.70;;
39620;SDS011;25309;48.686;9.170;2023-08-17T02:07:55;7.73;;;6.87;;
39620;SDS011;25309;48.686;9.170;2023-08-17T02:10:22;7.60;;;5.87;;
39620;SDS011;25309;48.686;9.170;2023-08-17T02:12:50;7.63;;;6.80;;
39620;SDS011;25309;48.686;9.170;2023-08-17T02:15:24;8.97;;;7.10;;
39620;SDS011;25309;48.686;9.170;2023-08-17T02:17:51;8.73;;;7.30;;
39620;SDS011;25309;48.686;9.170;2023-08-17T02:20:18;8.63;;;7.30;;
39620;SDS011;25309;48.686;9.170;2023-08-17T02:22:45;12.57;;;7.67;;
39620;SDS011;25309;48.686;9.170;2023-08-17T02:25:12;8.70;;;7.77;;
39620;SDS011;25309;48.686;9.170;2023-08-17T02:27:39;11.73;;;9.23;;
39620;SDS011;25309;48.686;9.170;2023-08-17T02:30:08;11.13;;;9.20;;
39620;SDS011;25309;48.686;9.170;2023-08-17T02:32:36;10.03;;;8.93;;
39620;SDS011;25309;48.686;9.170;2023-08-17T02:35:03;10.87;;;8.80;;
39620;SDS011;25309;48.686;9.170;2023-08-17T02:37:31;10.53;;;8.70;;
39620;SDS011;25309;48.686;9.170;2023-08-17T02:39:58;11.20;;;8.30;;
39620;SDS011;25309;48.686;9.170;2023-08-17T02:42:43;10.90;;;9.23;;
39620;SDS011;25309;48.686;9.170;2023-08-17T02:45:12;10.93;;;9.50;;
39620;SDS011;25309;48.686;9.170;2023-08-17T02:47:38;9.87;;;8.87;;
39620;SDS011;25309;48.686;9.170;2023-08-17T02:50:06;11.87;;;8.93;;
39620;SDS011;25309;48.686;9.170;2023-08-17T02:52:33;11.10;;;9.50;;
39620;SDS011;25309;48.686;9.170;2023-08-17T02:55:00;11.90;;;10.00;;
39620;SDS011;25309;48.686;9.170;2023-08-17T02:57:27;11.20;;;9.60;;
39620;SDS011;25309;48.686;9.170;2023-08-17T02:59:54;12.80;;;9.57;;
39620;SDS011;25309;48.686;9.170;2023-08-17T03:02:23;12.23;;;9.43;;
39620;SDS011;25309;48.686;9.170;2023-08-17T03:04:50;14.30;;;11.87;;
39620;SDS011;25309;48.686;9.170;2023-08-17T03:07:17;12.67;;;10.60;;
39620;SDS011;25309;48.686;9.170;2023-08-17T03:09:44;15.43;;;11.30;;
39620;SDS011;25309;48.686;9.170;2023-08-17T03:12:11;14.33;;;11.57;;
39620;SDS011;25309;48.686;9.170;2023-08-17T03:14:38;15.20;;;12.20;;
39620;SDS011;25309;48.686;9.170;2023-08-17T03:17:05;16.23;;;13.20;;
39620;SDS011;25309;48.686;9.170;2023-08-17T03:19:35;18.67;;;14.80;;
39620;SDS011;25309;48.686;9.170;2023-08-17T03:22:02;17.73;;;13.90;;
39620;SDS011;25309;48.686;9.170;2023-08-17T03:24:29;19.00;;;14.63;;
39620;SDS011;25309;48.686;9.170;2023-08-17T03:26:57;26.17;;;15.67;;
39620;SDS011;25309;48.686;9.170;2023-08-17T03:29:25;21.03;;;15.00;;
39620;SDS011;25309;48.686;9.170;2023-08-17T03:31:53;22.60;;;14.80;;
39620;SDS011;25309;48.686;9.170;2023-08-17T03:34:22;22.90;;;14.77;;
39620;SDS011;25309;48.686;9.170;2023-08-17T03:36:50;25.07;;;16.23;;
39620;SDS011;25309;48.686;9.170;2023-08-17T03:39:17;24.67;;;14.43;;
39620;SDS011;25309;48.686;9.170;2023-08-17T03:41:45;24.43;;;15.27;;
39620;SDS011;25309;48.686;9.170;2023-08-17T03:44:12;22.90;;;15.10;;
39620;SDS011;25309;48.686;9.170;2023-08-17T03:46:40;22.00;;;15.27;;
39620;SDS011;25309;48.686;9.170;2023-08-17T03:49:07;22.00;;;15.93;;
39620;SDS011;25309;48.686;9.170;2023-08-17T03:51:35;20.60;;;14.80;;
39620;SDS011;25309;48.686;9.170;2023-08-17T03:54:04;24.67;;;14.90;;
39620;SDS011;25309;48.686;9.170;2023-08-17T03:56:31;37.73;;;14.80;;
39620;SDS011;25309;48.686;9.170;2023-08-17T03:58:58;21.50;;;14.57;;
39620;SDS011;25309;48.686;9.170;2023-08-17T04:01:26;26.17;;;15.37;;
39620;SDS011;25309;48.686;9.170;2023-08-17T04:03:54;46.87;;;15.40;;
39620;SDS011;25309;48.686;9.170;2023-08-17T04:06:21;21.27;;;13.93;;
39620;SDS011;25309;48.686;9.170;2023-08-17T04:08:48;19.90;;;13.73;;
39620;SDS011;25309;48.686;9.170;2023-08-17T04:11:16;26.67;;;14.60;;
39620;SDS011;25309;48.686;9.170;2023-08-17T04:13:43;23.90;;;15.07;;
39620;SDS011;25309;48.686;9.170;2023-08-17T04:16:10;20.47;;;14.13;;
39620;SDS011;25309;48.686;9.170;2023-08-17T04:18:37;25.63;;;15.47;;
39620;SDS011;25309;48.686;9.170;2023-08-17T04:21:04;20.70;;;13.50;;
39620;SDS011;25309;48.686;9.170;2023-08-17T04:23:31;19.23;;;13.33;;
39620;SDS011;25309;48.686;9.170;2023-08-17T04:25:58;28.73;;;12.90;;
39620;SDS011;25309;48.686;9.170;2023-08-17T04:28:29;26.43;;;13.03;;
39620;SDS011;25309;48.686;9.170;2023-08-17T04:30:56;27.00;;;13.77;;
39620;SDS011;25309;48.686;9.170;2023-08-17T04:33:23;56.27;;;13.93;;
39620;SDS011;25309;48.686;9.170;2023-08-17T04:35:50;19.83;;;12.63;;
39620;SDS011;25309;48.686;9.170;2023-08-17T04:38:17;21.30;;;12.20;;
39620;SDS011;25309;48.686;9.170;2023-08-17T04:40:44;19.47;;;12.93;;
39620;SDS011;25309;48.686;9.170;2023-08-17T04:43:12;18.53;;;12.20;;
39620;SDS011;25309;48.686;9.170;2023-08-17T04:45:41;15.30;;;10.83;;
39620;SDS011;25309;48.686;9.170;2023-08-17T04:48:08;16.13;;;11.67;;
39620;SDS011;25309;48.686;9.170;2023-08-17T04:50:35;15.03;;;10.83;;
39620;SDS011;25309;48.686;9.170;2023-08-17T04:53:02;13.30;;;10.47;;
39620;SDS011;25309;48.686;9.170;2023-08-17T04:55:30;30.70;;;12.10;;
39620;SDS011;25309;48.686;9.170;2023-08-17T04:58:00;14.57;;;10.10;;
39620;SDS011;25309;48.686;9.170;2023-08-17T05:00:28;21.40;;;10.80;;
39620;SDS011;25309;48.686;9.170;2023-08-17T05:02:57;17.83;;;11.17;;
39620;SDS011;25309;48.686;9.170;2023-08-17T05:05:29;12.73;;;8.73;;
39620;SDS011;25309;48.686;9.170;2023-08-17T05:07:57;14.60;;;9.93;;
39620;SDS011;25309;48.686;9.170;2023-08-17T05:10:26;19.00;;;10.53;;
39620;SDS011;25309;48.686;9.170;2023-08-17T05:12:53;17.20;;;10.80;;
39620;SDS011;25309;48.686;9.170;2023-08-17T05:15:21;15.80;;;10.53;;
39620;SDS011;25309;48.686;9.170;2023-08-17T05:17:48;16.50;;;11.37;;
39620;SDS011;25309;48.686;9.170;2023-08-17T05:20:17;14.50;;;10.70;;
39620;SDS011;25309;48.686;9.170;2023-08-17T05:22:46;20.03;;;11.60;;
39620;SDS011;25309;48.686;9.170;2023-08-17T05:25:13;17.60;;;11.27;;
39620;SDS011;25309;48.686;9.170;2023-08-17T05:27:41;17.07;;;11.70;;
39620;SDS011;25309;48.686;9.170;2023-08-17T05:30:09;12.93;;;9.97;;
39620;SDS011;25309;48.686;9.170;2023-08-17T05:32:37;16.80;;;10.87;;
39620;SDS011;25309;48.686;9.170;2023-08-17T05:35:06;18.77;;;10.50;;
39620;SDS011;25309;48.686;9.170;2023-08-17T05:37:35;18.20;;;11.57;;
39620;SDS011;25309;48.686;9.170;2023-08-17T05:40:02;16.03;;;10.93;;
39620;SDS011;25309;48.686;9.170;2023-08-17T05:42:30;17.47;;;11.13;;
39620;SDS011;25309;48.686;9.170;2023-08-17T05:44:57;19.90;;;11.70;;
39620;SDS011;25309;48.686;9.170;2023-08-17T05:47:24;17.63;;;11.60;;
39620;SDS011;25309;48.686;9.170;2023-08-17T05:49:52;19.73;;;12.63;;
39620;SDS011;25309;48.686;9.170;2023-08-17T05:52:19;25.77;;;13.30;;
39620;SDS011;25309;48.686;9.170;2023-08-17T05:54:47;20.27;;;12.57;;
39620;SDS011;25309;48.686;9.170;2023-08-17T05:57:14;20.57;;;13.60;;
39620;SDS011;25309;48.686;9.170;2023-08-17T05:59:41;19.90;;;13.03;;
39620;SDS011;25309;48.686;9.170;2023-08-17T06:02:08;28.10;;;14.10;;
39620;SDS011;25309;48.686;9.170;2023-08-17T06:04:35;25.47;;;14.20;;
39620;SDS011;25309;48.686;9.170;2023-08-17T06:07:02;21.27;;;13.83;;
39620;SDS011;25309;48.686;9.170;2023-08-17T06:09:29;22.10;;;14.23;;
39620;SDS011;25309;48.686;9.170;2023-08-17T06:11:57;24.50;;;15.43;;
39620;SDS011;25309;48.686;9.170;2023-08-17T06:14:24;27.97;;;14.93;;
39620;SDS011;25309;48.686;9.170;2023-08-17T06:16:51;19.77;;;14.13;;
39620;SDS011;25309;48.686;9.170;2023-08-17T06:19:17;17.43;;;12.90;;
39620;SDS011;25309;48.686;9.170;2023-08-17T06:21:44;16.27;;;12.47;;
39620;SDS011;25309;48.686;9.170;2023-08-17T06:24:11;47.53;;;20.87;;
39620;SDS011;25309;48.686;9.170;2023-08-17T06:26:38;33.70;;;16.77;;
39620;SDS011;25309;48.686;9.170;2023-08-17T06:29:07;45.03;;;20.67;;
39620;SDS011;25309;48.686;9.170;2023-08-17T06:31:33;52.47;;;22.83;;
39620;SDS011;25309;48.686;9.170;2023-08-17T06:34:00;34.43;;;16.53;;
39620;SDS011;25309;48.686;9.170;2023-08-17T06:36:30;18.07;;;11.27;;
39620;SDS011;25309;48.686;9.170;2023-08-17T06:38:57;11.70;;;8.70;;
39620;SDS011;25309;48.686;9.170;2023-08-17T06:41:25;13.77;;;9.47;;
39620;SDS011;25309;48.686;9.170;2023-08-17T06:43:52;14.17;;;9.13;;
39620;SDS011;25309;48.686;9.170;2023-08-17T06:46:20;14.40;;;9.40;;
39620;SDS011;25309;48.686;9.170;2023-08-17T06:48:47;12.00;;;8.63;;
39620;SDS011;25309;48.686;9.170;2023-08-17T06:51:14;13.27;;;9.10;;
39620;SDS011;25309;48.686;9.170;2023-08-17T06:53:41;12.03;;;8.47;;
39620;SDS011;25309;48.686;9.170;2023-08-17T06:56:09;14.00;;;8.93;;
39620;SDS011;25309;48.686;9.170;2023-08-17T06:58:36;11.83;;;8.13;;
39620;SDS011;25309;48.686;9.170;2023-08-17T07:01:02;9.90;;;7.50;;
39620;SDS011;25309;48.686;9.170;2023-08-17T07:03:31;10.40;;;8.13;;
39620;SDS011;25309;48.686;9.170;2023-08-17T07:05:58;12.63;;;9.60;;
39620;SDS011;25309;48.686;9.170;2023-08-17T07:08:25;11.30;;;9.07;;
39620;SDS011;25309;48.686;9.170;2023-08-17T07:10:52;12.77;;;9.77;;
39620;SDS011;25309;48.686;9.170;2023-08-17T07:13:19;12.40;;;9.37;;
39620;SDS011;25309;48.686;9.170;2023-08-17T07:15:46;12.33;;;10.00;;
39620;SDS011;25309;48.686;9.170;2023-08-17T07:18:13;13.00;;;10.03;;
39620;SDS011;25309;48.686;9.170;2023-08-17T07:20:41;9.77;;;8.17;;
39620;SDS011;25309;48.686;9.170;2023-08-17T07:23:08;11.70;;;9.10;;
39620;SDS011;25309;48.686;9.170;2023-08-17T07:25:35;10.17;;;8.40;;
39620;SDS011;25309;48.686;9.170;2023-08-17T07:28:02;12.40;;;9.80;;
39620;SDS011;25309;48.686;9.170;2023-08-17T07:30:29;12.37;;;9.53;;
39620;SDS011;25309;48.686;9.170;2023-08-17T07:32:56;10.53;;;9.10;;
39620;SDS011;25309;48.686;9.170;2023-08-17T07:35:23;10.37;;;8.47;;
39620;SDS011;25309;48.686;9.170;2023-08-17T07:37:52;10.17;;;8.40;;
39620;SDS011;25309;48.686;9.170;2023-08-17T07:40:34;9.73;;;8.63;;
39620;SDS011;25309;48.686;9.170;2023-08-17T07:43:01;11.83;;;9.37;;
39620;SDS011;25309;48.686;9.170;2023-08-17T07:45:28;8.43;;;7.53;;
39620;SDS011;25309;48.686;9.170;2023-08-17T07:47:55;9.40;;;8.30;;
39620;SDS011;25309;48.686;9.170;2023-08-17T07:50:23;10.27;;;7.73;;
39620;SDS011;25309;48.686;9.170;2023-08-17T07:52:50;9.37;;;8.17;;
39620;SDS011;25309;48.686;9.170;2023-08-17T07:55:18;9.17;;;7.67;;
39620;SDS011;25309;48.686;9.170;2023-08-17T07:57:45;8.00;;;6.87;;
39620;SDS011;25309;48.686;9.170;2023-08-17T08:00:12;9.00;;;8.10;;
39620;SDS011;25309;48.686;9.170;2023-08-17T08:02:40;10.03;;;7.27;;
39620;SDS011;25309;48.686;9.170;2023-08-17T08:05:07;9.07;;;7.37;;
39620;SDS011;25309;48.686;9.170;2023-08-17T08:07:34;9.83;;;8.07;;
39620;SDS011;25309;48.686;9.170;2023-08-17T08:10:03;8.23;;;7.43;;
39620;SDS011;25309;48.686;9.170;2023-08-17T08:12:30;8.87;;;7.37;;
39620;SDS011;25309;48.686;9.170;2023-08-17T08:14:57;8.37;;;6.80;;
39620;SDS011;25309;48.686;9.170;2023-08-17T08:17:24;6.77;;;5.87;;
39620;SDS011;25309;48.686;9.170;2023-08-17T08:19:52;6.53;;;5.50;;
39620;SDS011;25309;48.686;9.170;2023-08-17T08:22:20;7.37;;;6.60;;
39620;SDS011;25309;48.686;9.170;2023-08-17T08:24:47;7.57;;;6.70;;
39620;SDS011;25309;48.686;9.170;2023-08-17T08:27:15;8.60;;;6.83;;
39620;SDS011;25309;48.686;9.170;2023-08-17T08:29:42;7.90;;;6.60;;
39620;SDS011;25309;48.686;9.170;2023-08-17T08:32:09;7.10;;;6.40;;
39620;SDS011;25309;48.686;9.170;2023-08-17T08:34:36;7.10;;;6.40;;
39620;SDS011;25309;48.686;9.170;2023-08-17T08:37:03;7.53;;;6.60;;
39620;SDS011;25309;48.686;9.170;2023-08-17T08:39:30;7.90;;;7.10;;
39620;SDS011;25309;48.686;9.170;2023-08-17T08:41:57;7.33;;;6.63;;
39620;SDS011;25309;48.686;9.170;2023-08-17T08:44:26;5.93;;;5.20;;
39620;SDS011;25309;48.686;9.170;2023-08-17T08:46:53;8.10;;;7.30;;
39620;SDS011;25309;48.686;9.170;2023-08-17T08:49:23;7.03;;;6.33;;
39620;SDS011;25309;48.686;9.170;2023-08-17T08:51:51;7.03;;;6.33;;
39620;SDS011;25309;48.686;9.170;2023-08-17T08:54:20;7.10;;;6.40;;
39620;SDS011;25309;48.686;9.170;2023-08-17T08:56:51;6.00;;;5.40;;
39620;SDS011;25309;48.686;9.170;2023-08-17T08:59:24;5.00;;;4.50;;
39620;SDS011;25309;48.686;9.170;2023-08-17T09:01:54;5.73;;;5.13;;
39620;SDS011;25309;48.686;9.170;2023-08-17T09:04:22;5.53;;;5.03;;
39620;SDS011;25309;48.686;9.170;2023-08-17T09:06:50;5.33;;;4.67;;
39620;SDS011;25309;48.686;9.170;2023-08-17T09:09:35;6.57;;;5.30;;
39620;SDS011;25309;48.686;9.170;2023-08-17T09:12:02;5.80;;;4.63;;
39620;SDS011;25309;48.686;9.170;2023-08-17T09:14:31;5.30;;;4.80;;
39620;SDS011;25309;48.686;9.170;2023-08-17T09:16:58;5.00;;;4.50;;
39620;SDS011;25309;48.686;9.170;2023-08-17T09:19:25;5.73;;;4.63;;
39620;SDS011;25309;48.686;9.170;2023-08-17T09:21:52;5.23;;;4.73;;
39620;SDS011;25309;48.686;9.170;2023-08-17T09:24:19;4.90;;;4.40;;
39620;SDS011;25309;48.686;9.170;2023-08-17T09:26:47;5.50;;;5.00;;
39620;SDS011;25309;48.686;9.170;2023-08-17T09:29:18;4.70;;;4.20;;
39620;SDS011;25309;48.686;9.170;2023-08-17T09:31:48;4.83;;;4.33;;
39620;SDS011;25309;48.686;9.170;2023-08-17T09:34:15;6.33;;;5.00;;
39620;SDS011;25309;48.686;9.170;2023-08-17T09:36:45;5.40;;;4.90;;
39620;SDS011;25309;48.686;9.170;2023-08-17T09:39:12;5.83;;;4.40;;
39620;SDS011;25309;48.686;9.170;2023-08-17T09:41:41;5.73;;;5.13;;
39620;SDS011;25309;48.686;9.170;2023-08-17T09:44:09;4.57;;;4.07;;
39620;SDS011;25309;48.686;9.170;2023-08-17T09:46:37;5.00;;;4.50;;
39620;SDS011;25309;48.686;9.170;2023-08-17T09:49:06;5.00;;;4.40;;
39620;SDS011;25309;48.686;9.170;2023-08-17T09:51:34;4.93;;;4.47;;
39620;SDS011;25309;48.686;9.170;2023-08-17T09:54:02;5.90;;;4.80;;
39620;SDS011;25309;48.686;9.170;2023-08-17T09:56:32;5.07;;;4.57;;
39620;SDS011;25309;48.686;9.170;2023-08-17T09:59:00;5.20;;;4.70;;
39620;SDS011;25309;48.686;9.170;2023-08-17T10:01:27;5.33;;;4.50;;
39620;SDS011;25309;48.686;9.170;2023-08-17T10:03:55;4.97;;;4.20;;
39620;SDS011;25309;48.686;9.170;2023-08-17T10:06:25;5.10;;;4.60;;
39620;SDS011;25309;48.686;9.170;2023-08-17T10:08:54;5.27;;;4.23;;
39620;SDS011;25309;48.686;9.170;2023-08-17T10:11:25;4.70;;;4.17;;
39620;SDS011;25309;48.686;9.170;2023-08-17T10:13:58;6.63;;;4.50;;
39620;SDS011;25309;48.686;9.170;2023-08-17T10:16:31;4.70;;;4.30;;
39620;SDS011;25309;48.686;9.170;2023-08-17T10:19:05;5.47;;;4.63;;
39620;SDS011;25309;48.686;9.170;2023-08-17T10:21:39;6.18;;;4.88;;
39620;SDS011;25309;48.686;9.170;2023-08-17T10:24:10;4.88;;;4.32;;
39620;SDS011;25309;48.686;9.170;2023-08-17T10:26:38;4.22;;;3.83;;
39620;SDS011;25309;48.686;9.170;2023-08-17T10:29:05;4.93;;;4.43;;
39620;SDS011;25309;48.686;9.170;2023-08-17T10:31:43;5.85;;;4.40;;
39620;SDS011;25309;48.686;9.170;2023-08-17T10:34:10;4.70;;;4.30;;
39620;SDS011;25309;48.686;9.170;2023-08-17T10:36:41;5.05;;;4.25;;
39620;SDS011;25309;48.686;9.170;2023-08-17T10:39:18;4.35;;;3.95;;
39620;SDS011;25309;48.686;9.170;2023-08-17T10:41:50;5.47;;;4.47;;
39620;SDS011;25309;48.686;9.170;2023-08-17T10:44:18;5.85;;;4.47;;
39620;SDS011;25309;48.686;9.170;2023-08-17T10:47:18;5.53;;;4.45;;
39620;SDS011;25309;48.686;9.170;2023-08-17T10:49:47;4.65;;;4.25;;
39620;SDS011;25309;48.686;9.170;2023-08-17T10:52:24;5.05;;;4.53;;
39620;SDS011;25309;48.686;9.170;2023-08-17T10:54:53;4.90;;;4.40;;
39620;SDS011;25309;48.686;9.170;2023-08-17T10:57:24;4.50;;;4.10;;
39620;SDS011;25309;48.686;9.170;2023-08-17T11:00:06;4.55;;;4.15;;
39620;SDS011;25309;48.686;9.170;2023-08-17T11:02:34;5.43;;;4.10;;
39620;SDS011;25309;48.686;9.170;2023-08-17T11:05:02;4.90;;;4.40;;
39620;SDS011;25309;48.686;9.170;2023-08-17T11:07:39;4.70;;;4.30;;
39620;SDS011;25309;48.686;9.170;2023-08-17T11:10:26;4.43;;;4.00;;
39620;SDS011;25309;48.686;9.170;2023-08-17T11:12:55;4.40;;;4.00;;
39620;SDS011;25309;48.686;9.170;2023-08-17T11:15:26;4.80;;;4.40;;
39620;SDS011;25309;48.686;9.170;2023-08-17T11:18:04;4.97;;;4.47;;
39620;SDS011;25309;48.686;9.170;2023-08-17T11:20:35;4.25;;;3.95;;
39620;SDS011;25309;48.686;9.170;2023-08-17T11:23:05;4.80;;;4.38;;
39620;SDS011;25309;48.686;9.170;2023-08-17T11:25:33;5.15;;;4.40;;
39620;SDS011;25309;48.686;9.170;2023-08-17T11:28:03;4.95;;;4.55;;
39620;SDS011;25309;48.686;9.170;2023-08-17T11:30:32;4.68;;;4.18;;
39620;SDS011;25309;48.686;9.170;2023-08-17T11:33:01;5.05;;;4.60;;
39620;SDS011;25309;48.686;9.170;2023-08-17T11:35:29;5.88;;;4.22;;
39620;SDS011;25309;48.686;9.170;2023-08-17T11:37:56;4.75;;;4.25;;
39620;SDS011;25309;48.686;9.170;2023-08-17T11:40:24;5.50;;;4.38;;
39620;SDS011;25309;48.686;9.170;2023-08-17T11:42:52;4.75;;;4.30;;
39620;SDS011;25309;48.686;9.170;2023-08-17T11:45:19;5.53;;;4.95;;
39620;SDS011;25309;48.686;9.170;2023-08-17T11:47:52;5.10;;;4.60;;
39620;SDS011;25309;48.686;9.170;2023-08-17T11:50:19;5.00;;;4.60;;
39620;SDS011;25309;48.686;9.170;2023-08-17T11:52:47;4.60;;;4.20;;
39620;SDS011;25309;48.686;9.170;2023-08-17T11:55:15;4.55;;;4.13;;
39620;SDS011;25309;48.686;9.170;2023-08-17T11:57:48;4.63;;;4.22;;
39620;SDS011;25309;48.686;9.170;2023-08-17T12:00:18;4.50;;;4.10;;
39620;SDS011;25309;48.686;9.170;2023-08-17T12:02:49;5.57;;;4.43;;
39620;SDS011;25309;48.686;9.170;2023-08-17T12:05:21;4.65;;;4.25;;
39620;SDS011;25309;48.686;9.170;2023-08-17T12:07:49;4.85;;;4.45;;
39620;SDS011;25309;48.686;9.170;2023-08-17T12:10:17;5.50;;;5.00;;
39620;SDS011;25309;48.686;9.170;2023-08-17T12:12:44;5.00;;;4.50;;
39620;SDS011;25309;48.686;9.170;2023-08-17T12:15:14;5.35;;;4.63;;
39620;SDS011;25309;48.686;9.170;2023-08-17T12:17:46;5.13;;;4.60;;
39620;SDS011;25309;48.686;9.170;2023-08-17T12:20:15;5.13;;;4.65;;
39620;SDS011;25309;48.686;9.170;2023-08-17T12:22:43;5.32;;;4.72;;
39620;SDS011;25309;48.686;9.170;2023-08-17T12:25:10;5.35;;;4.85;;
39620;SDS011;25309;48.686;9.170;2023-08-17T12:27:37;5.35;;;4.35;;
39620;SDS011;25309;48.686;9.170;2023-08-17T12:30:11;4.97;;;4.43;;
39620;SDS011;25309;48.686;9.170;2023-08-17T12:32:40;4.90;;;4.40;;
39620;SDS011;25309;48.686;9.170;2023-08-17T12:35:07;8.10;;;4.85;;
39620;SDS011;25309;48.686;9.170;2023-08-17T12:37:34;5.03;;;4.37;;
39620;SDS011;25309;48.686;9.170;2023-08-17T12:40:01;4.75;;;4.35;;
39620;SDS011;25309;48.686;9.170;2023-08-17T12:42:30;5.00;;;4.50;;
39620;SDS011;25309;48.686;9.170;2023-08-17T12:44:57;5.80;;;5.00;;
39620;SDS011;25309;48.686;9.170;2023-08-17T12:47:24;5.80;;;5.30;;
39620;SDS011;25309;48.686;9.170;2023-08-17T12:49:53;5.07;;;4.57;;
39620;SDS011;25309;48.686;9.170;2023-08-17T12:52:20;5.57;;;5.07;;
39620;SDS011;25309;48.686;9.170;2023-08-17T12:54:49;5.90;;;5.40;;
39620;SDS011;25309;48.686;9.170;2023-08-17T12:57:18;6.32;;;5.70;;
39620;SDS011;25309;48.686;9.170;2023-08-17T12:59:45;7.10;;;6.00;;
39620;SDS011;25309;48.686;9.170;2023-08-17T13:02:12;7.03;;;5.77;;
39620;SDS011;25309;48.686;9.170;2023-08-17T13:04:39;7.20;;;5.87;;
39620;SDS011;25309;48.686;9.170;2023-08-17T13:07:09;6.80;;;6.00;;
39620;SDS011;25309;48.686;9.170;2023-08-17T13:09:36;7.20;;;5.87;;
39620;SDS011;25309;48.686;9.170;2023-08-17T13:12:03;6.70;;;5.50;;
39620;SDS011;25309;48.686;9.170;2023-08-17T13:14:30;6.20;;;5.00;;
39620;SDS011;25309;48.686;9.170;2023-08-17T13:16:57;5.97;;;5.23;;
39620;SDS011;25309;48.686;9.170;2023-08-17T13:19:24;5.93;;;4.90;;
39620;SDS011;25309;48.686;9.170;2023-08-17T13:21:51;5.50;;;4.83;;
39620;SDS011;25309;48.686;9.170;2023-08-17T13:24:19;5.73;;;5.13;;
39620;SDS011;25309;48.686;9.170;2023-08-17T13:26:46;5.90;;;5.00;;
39620;SDS011;25309;48.686;9.170;2023-08-17T13:29:13;6.43;;;5.37;;
39620;SDS011;25309;48.686;9.170;2023-08-17T13:31:40;5.90;;;5.07;;
39620;SDS011;25309;48.686;9.170;2023-08-17T13:34:07;5.77;;;5.27;;
39620;SDS011;25309;48.686;9.170;2023-08-17T13:36:34;6.87;;;5.70;;
39620;SDS011;25309;48.686;9.170;2023-08-17T13:39:01;7.53;;;5.80;;
39620;SDS011;25309;48.686;9.170;2023-08-17T13:41:30;5.73;;;5.17;;
39620;SDS011;25309;48.686;9.170;2023-08-17T13:43:57;5.83;;;5.27;;
39620;SDS011;25309;48.686;9.170;2023-08-17T13:46:26;6.03;;;5.43;;
39620;SDS011;25309;48.686;9.170;2023-08-17T13:48:53;6.20;;;5.60;;
39620;SDS011;25309;48.686;9.170;2023-08-17T13:51:20;7.37;;;5.90;;
39620;SDS011;25309;48.686;9.170;2023-08-17T13:53:47;6.97;;;6.20;;
39620;SDS011;25309;48.686;9.170;2023-08-17T13:56:14;7.60;;;6.17;;
39620;SDS011;25309;48.686;9.170;2023-08-17T13:58:43;8.50;;;5.97;;
39620;SDS011;25309;48.686;9.170;2023-08-17T14:01:10;6.97;;;5.57;;
39620;SDS011;25309;48.686;9.170;2023-08-17T14:03:38;6.87;;;5.63;;
39620;SDS011;25309;48.686;9.170;2023-08-17T14:06:05;6.67;;;5.77;;
39620;SDS011;25309;48.686;9.170;2023-08-17T14:08:32;6.13;;;5.43;;
39620;SDS011;25309;48.686;9.170;2023-08-17T14:10:59;7.00;;;5.87;;
39620;SDS011;25309;48.686;9.170;2023-08-17T14:13:26;8.27;;;5.83;;
39620;SDS011;25309;48.686;9.170;2023-08-17T14:15:55;7.33;;;6.50;;
39620;SDS011;25309;48.686;9.170;2023-08-17T14:18:24;6.70;;;6.07;;
39620;SDS011;25309;48.686;9.170;2023-08-17T14:20:51;7.37;;;6.00;;
39620;SDS011;25309;48.686;9.170;2023-08-17T14:23:18;8.93;;;6.30;;
39620;SDS011;25309;48.686;9.170;2023-08-17T14:25:45;7.23;;;5.83;;
39620;SDS011;25309;48.686;9.170;2023-08-17T14:28:12;6.40;;;5.73;;
39620;SDS011;25309;48.686;9.170;2023-08-17T14:30:39;7.77;;;6.40;;
39620;SDS011;25309;48.686;9.170;2023-08-17T14:33:07;6.97;;;6.27;;
39620;SDS011;25309;48.686;9.170;2023-08-17T14:35:34;7.07;;;6.23;;
39620;SDS011;25309;48.686;9.170;2023-08-17T14:38:01;7.40;;;6.10;;
39620;SDS011;25309;48.686;9.170;2023-08-17T14:40:28;6.97;;;6.10;;
39620;SDS011;25309;48.686;9.170;2023-08-17T14:42:55;7.50;;;5.80;;
39620;SDS011;25309;48.686;9.170;2023-08-17T14:45:23;7.23;;;6.53;;
39620;SDS011;25309;48.686;9.170;2023-08-17T14:47:50;6.10;;;5.23;;
39620;SDS011;25309;48.686;9.170;2023-08-17T14:50:18;8.57;;;6.33;;
39620;SDS011;25309;48.686;9.170;2023-08-17T14:52:45;7.10;;;5.83;;